createdAt,value
2022-12-19T00:01:59.099Z,-0.38
2022-12-19T00:04:27.007Z,-0.37
2022-12-19T00:06:54.921Z,-0.37
2022-12-19T00:09:22.710Z,-0.37
2022-12-19T00:11:50.465Z,-0.36
2022-12-19T00:14:20.033Z,-0.33
2022-12-19T00:16:47.978Z,-0.34
2022-12-19T00:19:15.920Z,-0.33
2022-12-19T00:21:43.800Z,-0.32
2022-12-19T00:24:20.565Z,-0.31
2022-12-19T00:26:49.936Z,-0.31
2022-12-19T00:29:19.132Z,-0.29
2022-12-19T00:31:47.070Z,-0.29
2022-12-19T00:34:15.922Z,-0.28
2022-12-19T00:36:44.263Z,-0.26
2022-12-19T00:39:12.903Z,-0.26
2022-12-19T00:41:42.576Z,-0.26
2022-12-19T00:44:12.874Z,-0.25
2022-12-19T00:46:44.526Z,-0.24
2022-12-19T00:49:20.191Z,-0.25
2022-12-19T00:51:47.947Z,-0.25
2022-12-19T00:54:16.429Z,-0.24
2022-12-19T00:56:44.383Z,-0.23
2022-12-19T00:59:12.433Z,-0.23
2022-12-19T01:01:42.231Z,-0.19
2022-12-19T01:04:30.721Z,-0.20
2022-12-19T01:07:01.720Z,-0.22
2022-12-19T01:09:32.925Z,-0.20
2022-12-19T01:12:18.746Z,-0.19
2022-12-19T01:14:48.445Z,-0.19
2022-12-19T01:17:16.201Z,-0.16
2022-12-19T01:19:45.360Z,-0.16
2022-12-19T01:22:13.684Z,-0.17
2022-12-19T01:24:42.035Z,-0.15
2022-12-19T01:27:09.818Z,-0.15
2022-12-19T01:29:52.414Z,-0.14
2022-12-19T01:32:21.222Z,-0.14
2022-12-19T01:34:50.805Z,-0.12
2022-12-19T01:37:18.979Z,-0.12
2022-12-19T01:39:46.765Z,-0.11
2022-12-19T01:42:19.659Z,-0.10
2022-12-19T01:45:05.384Z,-0.08
2022-12-19T01:47:37.110Z,-0.10
2022-12-19T01:50:07.230Z,-0.10
2022-12-19T01:52:34.977Z,-0.09
2022-12-19T01:55:02.978Z,-0.08
2022-12-19T01:57:30.788Z,-0.06
2022-12-19T02:00:04.939Z,-0.04
2022-12-19T02:02:45.920Z,-0.04
2022-12-19T02:05:15.613Z,-0.04
2022-12-19T02:07:45.166Z,-0.02
2022-12-19T02:10:13.240Z,-0.04
2022-12-19T02:12:44.219Z,-0.01
2022-12-19T02:15:16.103Z,-0.01
2022-12-19T02:18:04.639Z,-0.00
2022-12-19T02:20:59.476Z,-0.00
2022-12-19T02:24:03.896Z,0.01
2022-12-19T02:26:52.757Z,-0.02
2022-12-19T02:30:09.050Z,0.01
2022-12-19T02:32:50.111Z,0.02
2022-12-19T02:35:30.424Z,0.06
2022-12-19T02:38:13.277Z,0.07
2022-12-19T02:40:48.560Z,0.07
2022-12-19T02:43:29.698Z,0.07
2022-12-19T02:45:58.687Z,-0.11
2022-12-19T02:48:29.439Z,0.08
2022-12-19T02:50:58.736Z,0.13
2022-12-19T02:53:26.590Z,0.13
2022-12-19T02:56:18.483Z,0.16
2022-12-19T02:59:01.562Z,0.15
2022-12-19T03:01:45.354Z,0.20
2022-12-19T03:04:25.352Z,0.21
2022-12-19T03:06:58.556Z,0.21
2022-12-19T03:09:39.883Z,0.21
2022-12-19T03:12:17.130Z,0.23
2022-12-19T03:14:46.529Z,0.25
2022-12-19T03:17:14.433Z,0.26
2022-12-19T03:19:49.614Z,0.28
2022-12-19T03:22:17.502Z,0.28
2022-12-19T03:24:45.296Z,0.31
2022-12-19T03:27:21.035Z,0.33
2022-12-19T03:29:55.925Z,0.34
2022-12-19T03:32:26.088Z,0.34
2022-12-19T03:34:59.881Z,0.36
2022-12-19T03:37:31.409Z,0.38
2022-12-19T03:40:09.525Z,0.40
2022-12-19T03:42:58.795Z,0.38
2022-12-19T03:45:35.134Z,0.36
2022-12-19T03:48:08.084Z,0.38
2022-12-19T03:50:49.336Z,0.39
2022-12-19T03:53:28.958Z,0.38
2022-12-19T03:56:04.336Z,0.41
2022-12-19T03:58:36.517Z,0.39
2022-12-19T04:01:06.023Z,0.39
2022-12-19T04:03:34.178Z,0.41
2022-12-19T04:06:05.751Z,0.43
2022-12-19T04:08:36.472Z,0.42
2022-12-19T04:11:10.016Z,0.44
2022-12-19T04:13:43.048Z,0.44
2022-12-19T04:16:14.439Z,0.20
2022-12-19T04:18:46.041Z,0.36
2022-12-19T04:21:23.460Z,0.43
2022-12-19T04:23:56.292Z,0.43
2022-12-19T04:26:25.739Z,0.41
2022-12-19T04:28:57.523Z,0.42
2022-12-19T04:31:25.719Z,0.43
2022-12-19T04:33:53.634Z,0.43
2022-12-19T04:36:22.965Z,0.44
2022-12-19T04:38:50.743Z,0.45
2022-12-19T04:41:18.627Z,0.45
2022-12-19T04:43:46.427Z,0.46
2022-12-19T04:46:14.306Z,0.47
2022-12-19T04:48:42.170Z,0.47
2022-12-19T04:51:10.060Z,0.49
2022-12-19T04:53:39.212Z,0.51
2022-12-19T04:56:08.477Z,0.50
2022-12-19T04:58:36.235Z,0.51
2022-12-19T05:01:05.148Z,0.52
2022-12-19T05:03:33.664Z,0.50
2022-12-19T05:06:06.078Z,0.55
2022-12-19T05:08:34.434Z,0.53
2022-12-19T05:11:04.575Z,0.57
2022-12-19T05:13:33.024Z,0.55
2022-12-19T05:16:02.500Z,0.57
2022-12-19T05:18:31.759Z,0.58
2022-12-19T05:21:00.203Z,0.58
2022-12-19T05:23:28.579Z,0.59
2022-12-19T05:25:59.054Z,0.60
2022-12-19T05:28:28.459Z,0.60
2022-12-19T05:31:04.195Z,0.62
2022-12-19T05:33:32.167Z,0.60
2022-12-19T05:35:59.953Z,0.62
2022-12-19T05:38:28.086Z,0.62
2022-12-19T05:40:56.148Z,0.63
2022-12-19T05:43:24.096Z,0.63
2022-12-19T05:45:53.602Z,0.66
2022-12-19T05:48:21.473Z,0.66
2022-12-19T05:50:50.359Z,0.66
2022-12-19T05:53:23.220Z,0.66
2022-12-19T05:55:53.667Z,0.68
2022-12-19T05:58:21.507Z,0.68
2022-12-19T06:00:49.297Z,0.69
2022-12-19T06:03:18.763Z,0.72
2022-12-19T06:05:46.691Z,0.72
2022-12-19T06:08:14.410Z,0.73
2022-12-19T06:10:42.351Z,0.73
2022-12-19T06:13:10.290Z,0.74
2022-12-19T06:15:38.172Z,0.75
2022-12-19T06:18:06.653Z,0.74
2022-12-19T06:20:36.042Z,0.76
2022-12-19T06:23:03.916Z,0.78
2022-12-19T06:25:31.721Z,0.78
2022-12-19T06:27:59.637Z,0.81
2022-12-19T06:30:27.464Z,0.81
2022-12-19T06:32:55.278Z,0.83
2022-12-19T06:35:23.394Z,0.84
2022-12-19T06:37:55.365Z,0.86
2022-12-19T06:40:45.005Z,0.86
2022-12-19T06:43:12.760Z,0.87
2022-12-19T06:45:40.605Z,0.90
2022-12-19T06:48:08.595Z,0.91
2022-12-19T06:50:36.826Z,0.93
2022-12-19T06:53:06.707Z,0.96
2022-12-19T06:55:37.200Z,0.97
2022-12-19T06:58:05.369Z,0.98
2022-12-19T07:00:37.484Z,1.01
2022-12-19T07:03:10.115Z,1.02
2022-12-19T07:05:38.297Z,1.01
2022-12-19T07:08:09.457Z,1.06
2022-12-19T07:10:37.460Z,1.07
2022-12-19T07:13:05.478Z,1.08
2022-12-19T07:15:36.316Z,1.11
2022-12-19T07:18:06.611Z,1.11
2022-12-19T07:20:41.825Z,1.13
2022-12-19T07:23:18.354Z,1.14
2022-12-19T07:25:46.360Z,1.16
2022-12-19T07:28:15.101Z,1.18
2022-12-19T07:30:43.099Z,1.21
2022-12-19T07:33:11.815Z,1.20
2022-12-19T07:35:40.782Z,1.23
2022-12-19T07:38:09.043Z,1.24
2022-12-19T07:40:38.274Z,1.26
2022-12-19T07:43:07.398Z,1.26
2022-12-19T07:45:37.370Z,1.28
2022-12-19T07:48:06.681Z,1.30
2022-12-19T07:50:34.534Z,1.29
2022-12-19T07:53:02.939Z,1.31
2022-12-19T07:55:30.799Z,1.31
2022-12-19T07:58:00.549Z,1.33
2022-12-19T08:00:28.469Z,1.35
2022-12-19T08:02:56.358Z,1.36
2022-12-19T08:05:24.311Z,1.38
2022-12-19T08:07:52.121Z,1.39
2022-12-19T08:10:22.429Z,1.38
2022-12-19T08:12:50.364Z,1.41
2022-12-19T08:15:19.750Z,1.42
2022-12-19T08:17:47.543Z,1.43
2022-12-19T08:20:15.401Z,1.44
2022-12-19T08:22:43.226Z,1.46
2022-12-19T08:25:11.636Z,1.48
2022-12-19T08:27:39.687Z,1.50
2022-12-19T08:30:09.065Z,1.52
2022-12-19T08:32:38.249Z,1.54
2022-12-19T08:35:08.236Z,1.54
2022-12-19T08:37:36.522Z,1.54
2022-12-19T08:40:05.021Z,1.55
2022-12-19T08:42:33.688Z,1.58
2022-12-19T08:45:01.719Z,1.58
2022-12-19T08:47:30.327Z,1.60
2022-12-19T08:49:59.513Z,1.61
2022-12-19T08:52:27.389Z,1.62
2022-12-19T08:54:55.254Z,1.63
2022-12-19T08:57:23.120Z,1.62
2022-12-19T08:59:51.060Z,1.64
2022-12-19T09:02:19.998Z,1.65
2022-12-19T09:06:01.494Z,1.67
2022-12-19T09:07:38.525Z,1.68
2022-12-19T09:10:08.311Z,1.69
2022-12-19T09:12:36.273Z,1.71
2022-12-19T09:15:04.570Z,1.69
2022-12-19T09:17:32.611Z,1.73
2022-12-19T09:20:00.602Z,1.74
2022-12-19T09:22:29.382Z,1.73
2022-12-19T09:24:58.939Z,1.76
2022-12-19T09:27:27.113Z,1.76
2022-12-19T09:29:54.954Z,1.79
2022-12-19T09:32:22.820Z,1.80
2022-12-19T09:34:50.670Z,1.80
2022-12-19T09:37:20.292Z,1.83
2022-12-19T09:39:49.060Z,1.85
2022-12-19T09:42:41.596Z,1.87
2022-12-19T09:45:31.216Z,1.87
2022-12-19T09:48:00.217Z,1.86
2022-12-19T09:50:34.677Z,1.90
2022-12-19T09:53:08.098Z,1.91
2022-12-19T09:55:38.946Z,1.92
2022-12-19T09:58:15.402Z,1.93
2022-12-19T10:00:46.002Z,1.95
2022-12-19T10:03:21.960Z,1.96
2022-12-19T10:06:25.505Z,1.95
2022-12-19T10:09:20.146Z,1.96
2022-12-19T10:12:39.852Z,1.97
2022-12-19T10:14:58.666Z,1.97
2022-12-19T10:17:37.641Z,1.99
2022-12-19T10:20:20.850Z,2.01
2022-12-19T10:22:59.167Z,2.00
2022-12-19T10:25:33.926Z,2.02
2022-12-19T10:28:13.181Z,2.03
2022-12-19T10:30:49.301Z,2.04
2022-12-19T10:33:24.722Z,2.05
2022-12-19T10:36:01.841Z,2.06
2022-12-19T10:38:35.113Z,2.07
2022-12-19T10:41:17.907Z,2.11
2022-12-19T10:43:57.960Z,2.14
2022-12-19T10:46:46.849Z,2.19
2022-12-19T10:49:17.016Z,2.23
2022-12-19T10:51:54.967Z,2.30
2022-12-19T10:54:30.681Z,2.35
2022-12-19T10:57:19.806Z,2.40
2022-12-19T10:59:56.678Z,2.47
2022-12-19T11:02:35.940Z,2.52
2022-12-19T11:05:05.660Z,2.56
2022-12-19T11:07:33.701Z,2.61
2022-12-19T11:10:38.496Z,2.68
2022-12-19T11:18:28.831Z,2.71
2022-12-19T11:21:16.177Z,2.76
2022-12-19T11:29:16.787Z,2.80
2022-12-19T11:29:54.530Z,2.84
2022-12-19T11:30:09.515Z,2.88
2022-12-19T11:30:46.771Z,2.91
2022-12-19T11:33:16.045Z,2.95
2022-12-19T11:35:51.043Z,3.00
2022-12-19T11:38:26.737Z,3.02
2022-12-19T11:40:58.467Z,3.04
2022-12-19T11:43:48.750Z,3.07
2022-12-19T11:46:29.196Z,3.09
2022-12-19T11:49:03.175Z,3.11
2022-12-19T11:51:41.088Z,3.13
2022-12-19T11:54:17.072Z,3.15
2022-12-19T11:56:45.168Z,3.15
2022-12-19T11:59:19.460Z,3.17
2022-12-19T12:02:01.780Z,3.22
2022-12-19T12:04:44.657Z,3.23
2022-12-19T12:07:20.121Z,3.22
2022-12-19T12:13:09.774Z,3.22
2022-12-19T12:23:52.022Z,3.23
2022-12-19T12:29:15.663Z,3.22
2022-12-19T12:31:29.274Z,3.25
2022-12-19T12:31:39.936Z,3.26
2022-12-19T12:31:53.063Z,3.29
2022-12-19T12:32:05.068Z,3.30
2022-12-19T12:35:38.194Z,3.34
2022-12-19T12:38:24.038Z,3.37
2022-12-19T12:41:07.666Z,3.40
2022-12-19T12:43:55.997Z,3.44
2022-12-19T12:46:28.144Z,3.43
2022-12-19T12:49:02.651Z,3.46
2022-12-19T12:51:33.059Z,3.50
2022-12-19T12:54:07.383Z,3.50
2022-12-19T12:56:37.748Z,3.53
2022-12-19T12:59:21.855Z,3.55
2022-12-19T13:01:55.497Z,3.57
2022-12-19T13:04:33.695Z,3.60
2022-12-19T13:07:29.553Z,3.58
2022-12-19T13:10:17.306Z,3.61
2022-12-19T13:13:01.789Z,3.63
2022-12-19T13:15:37.536Z,3.64
2022-12-19T13:18:33.976Z,3.62
2022-12-19T13:21:04.321Z,3.63
2022-12-19T13:23:52.322Z,3.67
2022-12-19T13:26:46.637Z,3.64
2022-12-19T13:29:54.337Z,3.61
2022-12-19T13:32:23.623Z,3.67
2022-12-19T13:35:26.065Z,3.72
2022-12-19T13:39:48.149Z,3.70
2022-12-19T13:40:56.648Z,3.70
2022-12-19T13:43:46.077Z,3.71
2022-12-19T13:46:27.712Z,3.72
2022-12-19T13:49:00.903Z,3.70
2022-12-19T13:51:28.968Z,3.71
2022-12-19T13:53:59.807Z,3.71
2022-12-19T13:56:31.658Z,3.73
2022-12-19T13:59:02.532Z,3.74
2022-12-19T14:01:34.005Z,3.74
2022-12-19T14:04:08.190Z,3.75
2022-12-19T14:06:42.457Z,3.74
2022-12-19T14:11:27.046Z,3.73
2022-12-19T14:13:40.245Z,3.72
2022-12-19T14:15:33.612Z,3.71
2022-12-19T14:18:21.813Z,3.72
2022-12-19T14:22:04.564Z,3.70
2022-12-19T14:24:10.202Z,3.70
2022-12-19T14:28:19.655Z,3.67
2022-12-19T14:29:52.220Z,3.69
2022-12-19T14:33:53.580Z,3.69
2022-12-19T14:36:06.655Z,3.70
2022-12-19T14:39:22.432Z,3.69
2022-12-19T14:41:08.733Z,3.69
2022-12-19T14:43:57.772Z,3.67
2022-12-19T14:52:50.775Z,3.68
2022-12-19T14:54:14.415Z,3.68
2022-12-19T14:54:23.584Z,3.65
2022-12-19T14:56:15.980Z,3.65
2022-12-19T14:58:55.333Z,3.68
2022-12-19T15:01:24.167Z,3.66
2022-12-19T15:04:50.710Z,3.66
2022-12-19T15:07:09.518Z,3.64
2022-12-19T15:11:00.975Z,3.66
2022-12-19T15:14:55.374Z,3.62
2022-12-19T15:15:42.495Z,3.64
2022-12-19T15:18:28.194Z,3.66
2022-12-19T15:20:59.113Z,3.65
2022-12-19T15:23:28.236Z,3.65
2022-12-19T15:26:04.041Z,3.64
2022-12-19T15:28:38.788Z,3.67
2022-12-19T15:31:13.926Z,3.65
2022-12-19T15:34:00.100Z,3.66
2022-12-19T15:36:29.882Z,3.67
2022-12-19T15:38:57.738Z,3.70
2022-12-19T15:41:27.151Z,3.71
2022-12-19T15:44:04.165Z,3.72
2022-12-19T15:46:33.485Z,3.72
2022-12-19T15:49:02.133Z,3.74
2022-12-19T15:51:30.079Z,3.75
2022-12-19T15:54:22.067Z,3.76
2022-12-19T15:56:50.988Z,3.77
2022-12-19T15:59:36.533Z,3.82
2022-12-19T16:02:17.033Z,3.81
2022-12-19T16:04:46.469Z,3.81
2022-12-19T16:07:16.921Z,3.83
2022-12-19T16:09:44.840Z,3.84
2022-12-19T16:12:16.872Z,3.86
2022-12-19T16:14:45.232Z,3.84
2022-12-19T16:17:23.884Z,3.89
2022-12-19T16:19:51.986Z,3.88
2022-12-19T16:22:23.004Z,3.91
2022-12-19T16:24:51.636Z,3.91
2022-12-19T16:27:25.002Z,3.95
2022-12-19T16:29:53.532Z,3.93
2022-12-19T16:32:24.305Z,3.95
2022-12-19T16:34:53.732Z,3.96
2022-12-19T16:37:23.576Z,3.97
2022-12-19T16:39:55.136Z,3.99
2022-12-19T16:42:24.284Z,4.00
2022-12-19T16:44:52.142Z,3.99
2022-12-19T16:47:20.122Z,3.99
2022-12-19T16:49:48.035Z,4.00
2022-12-19T16:52:15.995Z,4.00
2022-12-19T16:54:43.858Z,4.00
2022-12-19T16:57:20.232Z,4.05
2022-12-19T16:59:51.247Z,4.03
2022-12-19T17:02:43.397Z,4.01
2022-12-19T17:05:20.190Z,4.05
2022-12-19T17:07:48.526Z,4.01
2022-12-19T17:10:22.679Z,4.05
2022-12-19T17:12:53.808Z,4.03
2022-12-19T17:15:27.569Z,4.08
2022-12-19T17:17:57.975Z,4.08
2022-12-19T17:20:28.668Z,4.09
2022-12-19T17:22:56.522Z,4.08
2022-12-19T17:25:26.406Z,4.10
2022-12-19T17:27:55.578Z,4.09
2022-12-19T17:30:24.821Z,4.11
2022-12-19T17:32:55.239Z,4.11
2022-12-19T17:35:28.098Z,4.12
2022-12-19T17:37:57.900Z,4.12
2022-12-19T17:40:27.707Z,4.14
2022-12-19T17:42:56.265Z,4.15
2022-12-19T17:45:26.444Z,4.17
2022-12-19T17:48:02.091Z,4.17
2022-12-19T17:50:34.754Z,4.19
2022-12-19T17:53:02.739Z,4.18
2022-12-19T17:55:31.737Z,4.22
2022-12-19T17:58:00.005Z,4.22
2022-12-19T18:00:32.354Z,4.24
2022-12-19T18:03:05.171Z,4.23
2022-12-19T18:05:33.925Z,3.99
2022-12-19T18:08:01.763Z,4.20
2022-12-19T18:10:32.820Z,4.24
2022-12-19T18:13:00.732Z,4.25
2022-12-19T18:15:29.928Z,4.28
2022-12-19T18:17:58.788Z,4.29
2022-12-19T18:20:31.898Z,4.29
2022-12-19T18:23:02.137Z,4.31
2022-12-19T18:25:31.958Z,4.33
2022-12-19T18:28:00.127Z,4.33
2022-12-19T18:30:29.354Z,4.36
2022-12-19T18:32:59.495Z,4.37
2022-12-19T18:35:32.503Z,4.39
2022-12-19T18:38:01.005Z,4.12
2022-12-19T18:40:31.615Z,4.33
2022-12-19T18:43:00.160Z,4.36
2022-12-19T18:45:34.956Z,4.39
2022-12-19T18:48:05.153Z,4.40
2022-12-19T18:50:33.073Z,4.39
2022-12-19T18:53:01.512Z,4.42
2022-12-19T18:55:32.399Z,4.43
2022-12-19T18:58:00.591Z,4.43
2022-12-19T19:00:30.266Z,4.43
2022-12-19T19:03:01.278Z,4.43
2022-12-19T19:05:31.316Z,4.44
2022-12-19T19:08:02.482Z,4.44
2022-12-19T19:10:32.310Z,4.44
2022-12-19T19:13:10.575Z,4.43
2022-12-19T19:15:46.882Z,4.45
2022-12-19T19:18:15.935Z,4.45
2022-12-19T19:20:45.836Z,4.47
2022-12-19T19:23:15.295Z,4.48
2022-12-19T19:25:43.607Z,4.48
2022-12-19T19:28:11.451Z,4.49
2022-12-19T19:30:41.507Z,4.50
2022-12-19T19:33:12.195Z,4.50
2022-12-19T19:35:40.276Z,4.51
2022-12-19T19:38:10.179Z,4.50
2022-12-19T19:40:38.078Z,4.52
2022-12-19T19:43:06.948Z,4.53
2022-12-19T19:45:39.651Z,4.55
2022-12-19T19:48:12.353Z,4.56
2022-12-19T19:50:40.190Z,4.57
2022-12-19T19:53:08.087Z,4.58
2022-12-19T19:55:36.040Z,4.58
2022-12-19T19:58:03.917Z,4.60
2022-12-19T20:00:31.745Z,4.61
2022-12-19T20:03:04.939Z,4.62
2022-12-19T20:05:35.965Z,4.62
2022-12-19T20:08:03.776Z,4.64
2022-12-19T20:10:31.689Z,4.65
2022-12-19T20:12:59.729Z,4.66
2022-12-19T20:15:27.756Z,4.67
2022-12-19T20:17:55.632Z,4.68
2022-12-19T20:20:23.754Z,4.69
2022-12-19T20:22:53.251Z,4.71
2022-12-19T20:25:21.177Z,4.73
2022-12-19T20:27:49.314Z,4.74
2022-12-19T20:30:18.192Z,4.76
2022-12-19T20:32:46.217Z,4.78
2022-12-19T20:35:15.123Z,4.78
2022-12-19T20:37:43.336Z,4.81
2022-12-19T20:40:13.525Z,4.83
2022-12-19T20:42:41.564Z,4.84
2022-12-19T20:45:10.122Z,4.87
2022-12-19T20:47:38.048Z,4.86
2022-12-19T20:50:07.638Z,4.87
2022-12-19T20:52:35.456Z,4.89
2022-12-19T20:55:03.207Z,4.90
2022-12-19T20:57:32.371Z,4.92
2022-12-19T21:00:00.164Z,4.92
2022-12-19T21:03:00.161Z,4.95
2022-12-19T21:05:21.632Z,4.95
2022-12-19T21:07:49.633Z,4.97
2022-12-19T21:10:17.785Z,4.97
2022-12-19T21:12:48.063Z,4.99
2022-12-19T21:15:16.709Z,4.99
2022-12-19T21:17:44.631Z,5.00
2022-12-19T21:20:13.330Z,5.03
2022-12-19T21:22:41.247Z,5.05
2022-12-19T21:25:09.642Z,5.07
2022-12-19T21:27:37.436Z,5.08
2022-12-19T21:30:07.951Z,5.11
2022-12-19T21:32:35.950Z,5.11
2022-12-19T21:35:03.761Z,5.12
2022-12-19T21:37:32.122Z,5.15
2022-12-19T21:40:00.004Z,5.16
2022-12-19T21:42:27.897Z,5.17
2022-12-19T21:44:55.745Z,5.18
2022-12-19T21:47:24.970Z,5.20
2022-12-19T21:49:52.794Z,5.21
2022-12-19T21:52:20.625Z,5.22
2022-12-19T21:54:48.492Z,5.23
2022-12-19T21:57:16.498Z,5.25
2022-12-19T21:59:45.241Z,5.27
2022-12-19T22:02:13.208Z,5.28
2022-12-19T22:04:42.666Z,5.30
2022-12-19T22:07:10.548Z,5.32
2022-12-19T22:09:38.338Z,5.32
2022-12-19T22:12:06.416Z,5.35
2022-12-19T22:14:34.341Z,5.35
2022-12-19T22:17:02.279Z,5.37
2022-12-19T22:19:30.053Z,5.40
2022-12-19T22:21:59.479Z,5.43
2022-12-19T22:24:27.318Z,5.43
2022-12-19T22:26:55.209Z,5.46
2022-12-19T22:29:23.035Z,5.47
2022-12-19T22:31:51.028Z,5.48
2022-12-19T22:34:21.196Z,5.51
2022-12-19T22:36:50.716Z,5.52
2022-12-19T22:39:22.411Z,5.53
2022-12-19T22:41:50.695Z,5.53
2022-12-19T22:44:20.655Z,5.57
2022-12-19T22:46:49.003Z,5.58
2022-12-19T22:49:17.092Z,5.59
2022-12-19T22:51:45.206Z,5.62
2022-12-19T22:54:14.029Z,5.63
2022-12-19T22:56:43.576Z,5.66
2022-12-19T22:59:13.022Z,5.68
2022-12-19T23:01:43.621Z,5.71
2022-12-19T23:04:14.123Z,5.74
2022-12-19T23:06:42.875Z,5.75
2022-12-19T23:09:13.616Z,5.78
2022-12-19T23:11:44.399Z,5.81
2022-12-19T23:14:15.772Z,5.84
2022-12-19T23:16:44.546Z,5.84
2022-12-19T23:19:12.976Z,5.86
2022-12-19T23:21:40.876Z,5.89
2022-12-19T23:24:09.134Z,5.90
2022-12-19T23:26:38.503Z,5.94
2022-12-19T23:29:11.998Z,5.95
2022-12-19T23:31:40.669Z,5.95
2022-12-19T23:34:08.910Z,5.98
2022-12-19T23:39:24.615Z,5.98
2022-12-19T23:41:52.432Z,5.99
2022-12-19T23:44:21.750Z,6.00
2022-12-19T23:46:49.601Z,6.02
2022-12-19T23:49:17.700Z,6.02
2022-12-19T23:51:45.519Z,6.02
2022-12-19T23:54:13.394Z,6.03
2022-12-19T23:56:41.267Z,6.04
2022-12-19T23:59:09.284Z,6.05
